createdAt,value
2023-09-21T00:02:07.782Z,20.61
2023-09-21T00:05:10.864Z,20.52
2023-09-21T00:08:14.207Z,20.53
2023-09-21T00:11:18.063Z,20.55
2023-09-21T00:14:20.793Z,20.51
2023-09-21T00:17:24.139Z,20.56
2023-09-21T00:20:37.739Z,20.53
2023-09-21T00:23:41.042Z,20.57
2023-09-21T00:26:48.605Z,20.51
2023-09-21T00:29:51.858Z,20.50
2023-09-21T00:32:54.933Z,20.43
2023-09-21T00:36:01.267Z,20.36
2023-09-21T00:39:05.242Z,20.35
2023-09-21T00:42:08.461Z,20.27
2023-09-21T00:45:11.567Z,20.21
2023-09-21T00:48:15.358Z,20.15
2023-09-21T00:51:18.648Z,20.15
2023-09-21T00:54:22.773Z,20.13
2023-09-21T00:57:25.954Z,20.13
2023-09-21T01:00:31.990Z,20.15
2023-09-21T01:03:39.576Z,20.12
2023-09-21T01:06:44.069Z,20.08
2023-09-21T01:09:47.072Z,20.10
2023-09-21T01:12:52.534Z,20.07
2023-09-21T01:16:03.022Z,20.08
2023-09-21T01:19:06.300Z,19.87
2023-09-21T01:22:13.397Z,19.91
2023-09-21T01:25:16.944Z,19.86
2023-09-21T01:28:24.567Z,19.87
2023-09-21T01:31:28.575Z,19.83
2023-09-21T01:34:32.511Z,19.77
2023-09-21T01:37:36.831Z,19.66
2023-09-21T01:40:41.542Z,19.61
2023-09-21T01:43:46.092Z,19.57
2023-09-21T01:46:51.343Z,19.48
2023-09-21T01:49:55.109Z,19.40
2023-09-21T01:52:58.033Z,19.39
2023-09-21T01:56:01.270Z,19.40
2023-09-21T01:59:05.231Z,19.40
2023-09-21T02:02:08.298Z,19.42
2023-09-21T02:05:12.268Z,19.32
2023-09-21T02:08:19.266Z,19.29
2023-09-21T02:11:22.460Z,19.25
2023-09-21T02:14:25.277Z,19.27
2023-09-21T02:17:28.991Z,19.28
2023-09-21T02:20:33.367Z,19.24
2023-09-21T02:23:38.967Z,19.25
2023-09-21T02:26:44.231Z,19.28
2023-09-21T02:29:48.211Z,19.36
2023-09-21T02:32:57.353Z,19.36
2023-09-21T02:36:02.749Z,19.42
2023-09-21T02:39:13.040Z,19.35
2023-09-21T02:42:16.364Z,19.32
2023-09-21T02:45:22.595Z,19.41
2023-09-21T02:48:26.723Z,19.47
2023-09-21T02:51:30.175Z,19.53
2023-09-21T02:54:33.749Z,19.50
2023-09-21T02:57:36.805Z,19.51
2023-09-21T03:00:44.628Z,19.50
2023-09-21T03:03:48.042Z,19.43
2023-09-21T03:06:53.224Z,19.47
2023-09-21T03:09:56.377Z,19.48
2023-09-21T03:12:59.846Z,19.54
2023-09-21T03:16:06.759Z,19.57
2023-09-21T03:19:09.683Z,19.55
2023-09-21T03:22:14.958Z,19.49
2023-09-21T03:25:17.767Z,19.45
2023-09-21T03:28:24.463Z,19.51
2023-09-21T03:31:27.711Z,19.46
2023-09-21T03:34:30.853Z,19.46
2023-09-21T03:37:33.839Z,19.50
2023-09-21T03:40:36.927Z,19.58
2023-09-21T03:43:39.695Z,19.63
2023-09-21T03:46:43.008Z,19.73
2023-09-21T03:49:45.868Z,19.82
2023-09-21T03:52:50.199Z,19.94
2023-09-21T03:55:53.060Z,20.08
2023-09-21T03:58:57.974Z,20.18
2023-09-21T04:02:02.830Z,20.26
2023-09-21T04:05:08.843Z,20.29
2023-09-21T04:08:12.000Z,20.33
2023-09-21T04:11:15.208Z,20.24
2023-09-21T04:14:19.187Z,20.23
2023-09-21T04:17:22.396Z,20.22
2023-09-21T04:20:25.279Z,20.20
2023-09-21T04:23:29.527Z,20.15
2023-09-21T04:26:32.641Z,20.10
2023-09-21T04:29:35.734Z,20.08
2023-09-21T04:32:40.181Z,20.05
2023-09-21T04:35:43.444Z,20.03
2023-09-21T04:38:49.473Z,20.01
2023-09-21T04:41:52.743Z,20.05
2023-09-21T04:44:56.546Z,20.07
2023-09-21T04:48:05.501Z,20.05
2023-09-21T04:51:14.500Z,20.05
2023-09-21T04:54:18.547Z,20.03
2023-09-21T04:57:22.412Z,20.03
2023-09-21T05:00:25.959Z,19.98
2023-09-21T05:03:29.064Z,19.98
2023-09-21T05:06:32.779Z,19.90
2023-09-21T05:09:35.614Z,19.85
2023-09-21T05:12:39.053Z,19.83
2023-09-21T05:15:42.129Z,19.83
2023-09-21T05:18:46.424Z,19.80
2023-09-21T05:21:49.457Z,19.76
2023-09-21T05:24:53.116Z,19.72
2023-09-21T05:27:56.640Z,19.71
2023-09-21T05:31:00.288Z,19.67
2023-09-21T05:34:03.781Z,19.73
2023-09-21T05:37:07.161Z,19.76
2023-09-21T05:40:12.999Z,19.79
2023-09-21T05:43:16.844Z,19.83
2023-09-21T05:46:19.630Z,19.87
2023-09-21T05:49:25.881Z,19.89
2023-09-21T05:52:30.747Z,19.87
2023-09-21T05:55:33.825Z,19.88
2023-09-21T05:58:37.518Z,19.92
2023-09-21T06:01:41.100Z,19.96
2023-09-21T06:04:45.144Z,20.00
2023-09-21T06:07:48.310Z,19.99
2023-09-21T06:10:51.501Z,20.06
2023-09-21T06:13:55.581Z,20.08
2023-09-21T06:16:59.327Z,20.17
2023-09-21T06:20:02.282Z,20.19
2023-09-21T06:23:08.082Z,20.28
2023-09-21T06:26:11.719Z,20.30
2023-09-21T06:29:14.829Z,20.36
2023-09-21T06:32:19.618Z,20.49
2023-09-21T06:35:26.517Z,20.52
2023-09-21T06:38:29.144Z,20.66
2023-09-21T06:41:32.405Z,21.05
2023-09-21T06:44:35.976Z,21.56
2023-09-21T06:47:39.259Z,22.10
2023-09-21T06:50:42.098Z,22.13
2023-09-21T06:53:46.508Z,22.21
2023-09-21T06:56:49.445Z,22.34
2023-09-21T06:59:55.220Z,22.50
2023-09-21T07:02:58.173Z,22.21
2023-09-21T07:06:01.628Z,21.89
2023-09-21T07:09:05.745Z,21.81
2023-09-21T07:12:09.162Z,21.70
2023-09-21T07:15:12.704Z,21.80
2023-09-21T07:18:16.379Z,22.03
2023-09-21T07:21:19.424Z,21.99
2023-09-21T07:24:22.758Z,21.87
2023-09-21T07:27:26.120Z,21.62
2023-09-21T07:30:34.411Z,21.50
2023-09-21T07:33:38.233Z,21.31
2023-09-21T07:36:41.679Z,21.26
2023-09-21T07:39:45.520Z,21.13
2023-09-21T07:42:51.923Z,21.05
2023-09-21T07:45:55.207Z,20.93
2023-09-21T07:48:58.542Z,20.79
2023-09-21T07:52:01.321Z,20.79
2023-09-21T07:55:05.790Z,20.81
2023-09-21T07:58:09.079Z,20.79
2023-09-21T08:01:13.352Z,20.82
2023-09-21T08:04:18.887Z,20.84
2023-09-21T08:07:27.789Z,20.87
2023-09-21T08:10:34.200Z,20.88
2023-09-21T08:13:37.085Z,20.96
2023-09-21T08:16:40.436Z,20.95
2023-09-21T08:19:43.506Z,20.92
2023-09-21T08:22:49.365Z,20.88
2023-09-21T08:25:52.629Z,20.83
2023-09-21T08:28:56.155Z,20.85
2023-09-21T08:31:59.797Z,20.95
2023-09-21T08:35:02.895Z,21.02
2023-09-21T08:38:05.845Z,21.10
2023-09-21T08:41:09.698Z,21.18
2023-09-21T08:44:13.072Z,21.27
2023-09-21T08:47:33.238Z,21.35
2023-09-21T08:50:39.804Z,21.29
2023-09-21T08:53:43.598Z,21.34
2023-09-21T08:56:49.012Z,21.33
2023-09-21T08:59:56.452Z,21.33
2023-09-21T09:03:01.304Z,21.38
2023-09-21T09:06:05.992Z,21.34
2023-09-21T09:09:09.928Z,21.27
2023-09-21T09:12:26.927Z,21.24
2023-09-21T09:15:38.615Z,21.16
2023-09-21T09:18:42.880Z,21.06
2023-09-21T09:21:51.368Z,21.24
2023-09-21T09:24:57.114Z,21.29
2023-09-21T09:28:03.086Z,21.45
2023-09-21T09:31:12.555Z,21.47
2023-09-21T09:34:19.480Z,21.64
2023-09-21T09:37:22.894Z,21.55
2023-09-21T09:40:27.337Z,21.44
2023-09-21T09:43:31.577Z,21.49
2023-09-21T09:46:43.075Z,21.47
2023-09-21T09:49:50.577Z,21.53
2023-09-21T09:53:04.625Z,21.57
2023-09-21T09:56:11.860Z,21.69
2023-09-21T09:59:15.539Z,21.65
2023-09-21T10:02:20.059Z,21.80
2023-09-21T10:05:28.542Z,21.93
2023-09-21T10:08:32.201Z,22.07
2023-09-21T10:11:35.673Z,22.10
2023-09-21T10:14:43.602Z,22.36
2023-09-21T10:17:52.074Z,22.63
2023-09-21T10:21:01.403Z,22.88
2023-09-21T10:24:14.118Z,23.01
2023-09-21T10:27:17.097Z,23.19
2023-09-21T10:30:24.685Z,23.35
2023-09-21T10:33:27.604Z,23.74
2023-09-21T10:36:32.109Z,23.81
2023-09-21T10:39:35.340Z,23.84
2023-09-21T10:42:38.873Z,23.76
2023-09-21T10:46:18.135Z,23.65
2023-09-21T10:49:24.629Z,23.51
2023-09-21T10:52:31.392Z,23.49
2023-09-21T10:55:36.378Z,23.62
2023-09-21T10:58:39.176Z,23.91
2023-09-21T11:01:43.152Z,24.13
2023-09-21T11:04:48.114Z,25.79
2023-09-21T11:07:53.155Z,27.61
2023-09-21T11:10:56.442Z,27.87
2023-09-21T11:14:00.554Z,28.23
2023-09-21T11:17:03.878Z,28.52
2023-09-21T11:20:09.824Z,29.15
2023-09-21T11:23:13.589Z,29.69
2023-09-21T11:26:17.061Z,29.42
2023-09-21T11:29:20.792Z,29.59
2023-09-21T11:32:24.423Z,29.69
2023-09-21T11:35:27.946Z,29.79
2023-09-21T11:38:34.879Z,30.64
2023-09-21T11:41:38.729Z,30.66
2023-09-21T11:44:42.561Z,30.49
2023-09-21T11:47:53.849Z,31.14
2023-09-21T11:50:57.171Z,31.87
2023-09-21T11:54:01.451Z,31.84
2023-09-21T11:57:06.688Z,31.41
2023-09-21T12:00:14.933Z,32.43
2023-09-21T12:03:21.621Z,32.04
2023-09-21T12:06:29.059Z,31.66
2023-09-21T12:09:32.903Z,30.54
2023-09-21T12:12:36.014Z,30.52
2023-09-21T12:15:43.396Z,30.62
2023-09-21T12:18:46.546Z,31.09
2023-09-21T12:21:49.972Z,30.65
2023-09-21T12:24:52.790Z,29.44
2023-09-21T12:27:56.074Z,28.47
2023-09-21T12:30:59.226Z,28.40
2023-09-21T12:34:04.032Z,28.15
2023-09-21T12:37:06.901Z,28.66
2023-09-21T12:40:14.208Z,28.64
2023-09-21T12:43:17.582Z,28.79
2023-09-21T12:46:21.043Z,28.68
2023-09-21T12:49:23.815Z,29.55
2023-09-21T12:52:27.078Z,27.89
2023-09-21T12:55:30.998Z,27.24
2023-09-21T12:58:34.725Z,27.62
2023-09-21T13:01:38.729Z,28.30
2023-09-21T13:04:43.447Z,28.33
2023-09-21T13:07:49.854Z,28.23
2023-09-21T13:10:53.292Z,27.77
2023-09-21T13:13:56.140Z,27.02
2023-09-21T13:17:01.085Z,27.14
2023-09-21T13:20:06.985Z,27.69
2023-09-21T13:23:10.471Z,27.63
2023-09-21T13:26:14.237Z,28.43
2023-09-21T13:29:19.735Z,28.74
2023-09-21T13:32:24.942Z,28.71
2023-09-21T13:35:27.929Z,28.40
2023-09-21T13:38:30.885Z,28.72
2023-09-21T13:41:34.453Z,28.42
2023-09-21T13:44:37.365Z,28.82
2023-09-21T13:47:41.159Z,28.85
2023-09-21T13:50:44.292Z,28.19
2023-09-21T13:53:47.420Z,28.58
2023-09-21T13:56:50.971Z,28.58
2023-09-21T13:59:56.216Z,27.97
2023-09-21T14:02:59.420Z,27.86
2023-09-21T14:06:03.291Z,28.43
2023-09-21T14:09:06.224Z,28.28
2023-09-21T14:12:09.502Z,27.69
2023-09-21T14:15:12.528Z,27.28
2023-09-21T14:18:16.862Z,27.11
2023-09-21T14:21:23.064Z,27.16
2023-09-21T14:24:26.422Z,26.96
2023-09-21T14:27:29.492Z,26.84
2023-09-21T14:30:33.488Z,26.86
2023-09-21T14:33:36.967Z,26.48
2023-09-21T14:36:42.692Z,26.23
2023-09-21T14:39:45.919Z,26.12
2023-09-21T14:42:49.333Z,25.94
2023-09-21T14:45:52.366Z,25.97
2023-09-21T14:48:56.037Z,25.89
2023-09-21T14:51:59.283Z,26.05
2023-09-21T14:55:02.463Z,26.24
2023-09-21T14:58:05.244Z,26.28
2023-09-21T15:01:09.587Z,26.33
2023-09-21T15:04:12.572Z,26.23
2023-09-21T15:07:17.051Z,26.18
2023-09-21T15:10:19.872Z,26.19
2023-09-21T15:13:23.381Z,26.12
2023-09-21T15:16:26.803Z,26.05
2023-09-21T15:19:30.606Z,26.05
2023-09-21T15:22:33.695Z,25.97
2023-09-21T15:25:37.256Z,26.00
2023-09-21T15:28:40.217Z,25.96
2023-09-21T15:31:43.724Z,25.91
2023-09-21T15:34:50.274Z,25.82
2023-09-21T15:37:56.462Z,25.69
2023-09-21T15:40:59.602Z,25.64
2023-09-21T15:44:04.494Z,25.53
2023-09-21T15:50:16.482Z,25.27
2023-09-21T15:53:20.951Z,25.21
2023-09-21T15:56:24.251Z,25.13
2023-09-21T15:59:28.558Z,25.10
2023-09-21T16:02:32.531Z,25.11
2023-09-21T16:05:37.723Z,25.04
2023-09-21T16:08:41.322Z,24.90
2023-09-21T16:11:45.020Z,24.89
2023-09-21T16:14:49.242Z,24.80
2023-09-21T16:17:54.326Z,24.70
2023-09-21T16:20:57.909Z,24.60
2023-09-21T16:24:02.049Z,24.55
2023-09-21T16:27:05.907Z,24.53
2023-09-21T16:30:10.924Z,24.47
2023-09-21T16:33:14.803Z,24.42
2023-09-21T16:36:21.387Z,24.40
2023-09-21T16:39:26.379Z,24.37
2023-09-21T16:42:30.739Z,24.37
2023-09-21T16:45:40.507Z,24.30
2023-09-21T16:48:45.921Z,24.34
2023-09-21T16:51:49.784Z,24.40
2023-09-21T16:54:54.539Z,24.43
2023-09-21T16:57:58.629Z,24.43
2023-09-21T17:01:02.236Z,24.49
2023-09-21T17:04:07.059Z,24.51
2023-09-21T17:07:13.184Z,24.52
2023-09-21T17:10:16.568Z,24.49
2023-09-21T17:13:22.093Z,23.98
2023-09-21T17:16:30.022Z,23.57
2023-09-21T17:19:34.042Z,23.29
2023-09-21T17:22:38.483Z,23.18
2023-09-21T17:25:42.110Z,23.10
2023-09-21T17:28:45.497Z,23.11
2023-09-21T17:31:49.675Z,23.11
2023-09-21T17:34:54.460Z,23.09
2023-09-21T17:37:58.218Z,23.12
2023-09-21T17:41:05.124Z,23.09
2023-09-21T17:44:09.495Z,23.03
2023-09-21T17:47:14.197Z,22.96
2023-09-21T17:50:19.052Z,22.87
2023-09-21T17:53:22.816Z,22.85
2023-09-21T17:56:27.774Z,22.81
2023-09-21T17:59:32.045Z,22.80
2023-09-21T18:02:37.771Z,22.76
2023-09-21T18:05:42.295Z,22.78
2023-09-21T18:08:46.863Z,22.76
2023-09-21T18:11:52.009Z,22.66
2023-09-21T18:14:56.844Z,22.77
2023-09-21T18:18:02.423Z,22.77
2023-09-21T18:21:08.966Z,22.75
2023-09-21T18:24:14.264Z,22.60
2023-09-21T18:27:18.905Z,22.57
2023-09-21T18:30:25.292Z,22.49
2023-09-21T18:33:30.239Z,22.53
2023-09-21T18:36:36.715Z,22.53
2023-09-21T18:39:40.924Z,22.54
2023-09-21T18:42:49.879Z,22.50
2023-09-21T18:45:54.876Z,22.54
2023-09-21T18:49:02.337Z,22.59
2023-09-21T18:52:09.293Z,22.56
2023-09-21T18:55:16.018Z,22.53
2023-09-21T18:58:22.335Z,22.50
2023-09-21T19:01:27.930Z,22.48
2023-09-21T19:04:33.798Z,22.50
2023-09-21T19:07:44.262Z,22.53
2023-09-21T19:10:49.125Z,22.54
2023-09-21T19:13:58.052Z,22.64
2023-09-21T19:17:04.867Z,22.77
2023-09-21T19:20:11.890Z,22.84
2023-09-21T19:23:17.735Z,22.87
2023-09-21T19:26:26.104Z,22.82
2023-09-21T19:29:30.504Z,22.81
2023-09-21T19:32:36.701Z,22.75
2023-09-21T19:35:41.049Z,22.65
2023-09-21T19:38:46.787Z,22.57
2023-09-21T19:41:50.998Z,22.44
2023-09-21T19:44:57.944Z,22.37
2023-09-21T19:48:02.112Z,22.30
2023-09-21T19:51:07.274Z,22.25
2023-09-21T19:54:12.875Z,22.21
2023-09-21T19:57:17.709Z,22.14
2023-09-21T20:00:24.655Z,22.07
2023-09-21T20:03:31.478Z,22.03
2023-09-21T20:06:36.112Z,21.94
2023-09-21T20:09:41.845Z,21.87
2023-09-21T20:12:46.809Z,21.83
2023-09-21T20:15:51.343Z,21.80
2023-09-21T20:18:55.619Z,21.77
2023-09-21T20:22:00.216Z,21.78
2023-09-21T20:25:04.618Z,21.72
2023-09-21T20:28:08.857Z,21.61
2023-09-21T20:31:12.132Z,21.52
2023-09-21T20:34:16.622Z,21.40
2023-09-21T20:37:21.723Z,21.37
2023-09-21T20:40:26.080Z,21.32
2023-09-21T20:43:28.978Z,21.24
2023-09-21T20:46:33.459Z,21.18
2023-09-21T20:49:36.321Z,21.13
2023-09-21T20:52:39.842Z,21.00
2023-09-21T20:55:45.645Z,20.95
2023-09-21T20:58:51.438Z,20.88
2023-09-21T21:01:54.317Z,20.80
2023-09-21T21:04:57.404Z,20.77
2023-09-21T21:08:00.383Z,20.70
2023-09-21T21:11:03.450Z,20.67
2023-09-21T21:14:06.238Z,20.60
2023-09-21T21:17:10.142Z,20.58
2023-09-21T21:20:13.040Z,20.52
2023-09-21T21:23:16.455Z,20.48
2023-09-21T21:26:19.276Z,20.45
2023-09-21T21:29:22.744Z,20.43
2023-09-21T21:32:25.809Z,20.40
2023-09-21T21:35:28.847Z,20.38
2023-09-21T21:38:31.645Z,20.37
2023-09-21T21:41:34.775Z,20.33
2023-09-21T21:44:37.690Z,20.30
2023-09-21T21:47:42.282Z,20.29
2023-09-21T21:50:45.158Z,20.22
2023-09-21T21:53:48.374Z,20.17
2023-09-21T21:56:51.999Z,20.17
2023-09-21T21:59:55.169Z,20.10
2023-09-21T22:02:59.915Z,20.06
2023-09-21T22:06:03.385Z,20.00
2023-09-21T22:09:06.425Z,20.02
2023-09-21T22:12:12.801Z,20.00
2023-09-21T22:15:16.273Z,19.95
2023-09-21T22:21:23.868Z,19.93
2023-09-21T22:24:27.041Z,19.88
2023-09-21T22:27:29.858Z,19.82
2023-09-21T22:30:32.992Z,19.80
2023-09-21T22:33:35.901Z,19.74
2023-09-21T22:36:39.381Z,19.73
2023-09-21T22:39:42.173Z,19.67
2023-09-21T22:42:49.522Z,19.58
2023-09-21T22:45:53.052Z,19.58
2023-09-21T22:48:59.266Z,19.62
2023-09-21T22:52:02.185Z,19.60
2023-09-21T22:55:05.528Z,19.65
2023-09-21T22:58:08.440Z,19.63
2023-09-21T23:01:11.913Z,19.68
2023-09-21T23:04:14.881Z,19.71
2023-09-21T23:07:19.170Z,19.71
2023-09-21T23:10:23.088Z,19.60
2023-09-21T23:13:26.345Z,19.60
2023-09-21T23:16:29.191Z,19.58
2023-09-21T23:19:32.295Z,19.57
2023-09-21T23:22:35.034Z,19.54
2023-09-21T23:25:37.996Z,19.52
2023-09-21T23:28:41.969Z,19.49
2023-09-21T23:31:46.240Z,19.46
2023-09-21T23:34:49.118Z,19.44
2023-09-21T23:37:52.245Z,19.43
2023-09-21T23:40:55.001Z,19.38
2023-09-21T23:43:58.125Z,19.35
2023-09-21T23:47:00.930Z,19.39
2023-09-21T23:50:04.380Z,19.33
2023-09-21T23:53:07.828Z,19.29
2023-09-21T23:56:12.412Z,19.24
2023-09-21T23:59:16.125Z,19.26
